createdAt,value
2023-03-25T00:01:00.360Z,99.90
2023-03-25T00:02:05.954Z,99.90
2023-03-25T00:03:10.097Z,99.90
2023-03-25T00:04:13.019Z,99.90
2023-03-25T00:05:17.890Z,99.90
2023-03-25T00:06:20.484Z,99.90
2023-03-25T00:07:26.295Z,99.90
2023-03-25T00:08:28.774Z,99.90
2023-03-25T00:09:31.214Z,99.90
2023-03-25T00:10:33.734Z,99.90
2023-03-25T00:11:37.019Z,99.90
2023-03-25T00:12:39.457Z,99.90
2023-03-25T00:13:42.251Z,99.90
2023-03-25T00:14:54.685Z,99.90
2023-03-25T00:15:58.437Z,99.90
2023-03-25T00:17:01.397Z,99.90
2023-03-25T00:18:05.581Z,99.90
2023-03-25T00:19:09.869Z,99.90
2023-03-25T00:20:12.763Z,99.90
2023-03-25T00:21:18.988Z,99.90
2023-03-25T00:22:23.981Z,99.90
2023-03-25T00:23:27.223Z,99.90
2023-03-25T00:24:29.554Z,99.90
2023-03-25T00:25:32.534Z,99.90
2023-03-25T00:26:44.506Z,99.90
2023-03-25T00:27:48.880Z,99.90
2023-03-25T00:28:51.916Z,99.90
2023-03-25T00:29:54.605Z,99.90
2023-03-25T00:31:05.018Z,99.90
2023-03-25T00:32:08.971Z,99.90
2023-03-25T00:33:14.321Z,99.90
2023-03-25T00:34:18.335Z,99.90
2023-03-25T00:35:24.178Z,99.90
2023-03-25T00:36:26.675Z,99.90
2023-03-25T00:37:30.084Z,99.90
2023-03-25T00:38:35.651Z,99.90
2023-03-25T00:39:40.690Z,99.90
2023-03-25T00:40:43.217Z,99.90
2023-03-25T00:41:45.673Z,99.90
2023-03-25T00:42:50.669Z,99.90
2023-03-25T00:43:56.645Z,99.90
2023-03-25T00:44:58.823Z,99.90
2023-03-25T00:46:01.759Z,99.90
2023-03-25T00:47:04.226Z,99.90
2023-03-25T00:48:07.085Z,99.90
2023-03-25T00:49:12.386Z,99.90
2023-03-25T00:50:15.007Z,99.90
2023-03-25T00:51:21.957Z,99.90
2023-03-25T00:52:24.554Z,99.90
2023-03-25T00:53:26.748Z,99.90
2023-03-25T00:54:28.954Z,99.90
2023-03-25T00:55:31.304Z,99.90
2023-03-25T00:56:36.490Z,99.90
2023-03-25T00:57:39.004Z,99.90
2023-03-25T00:58:41.441Z,99.90
2023-03-25T00:59:43.637Z,99.90
2023-03-25T01:00:45.803Z,99.90
2023-03-25T01:01:47.957Z,99.90
2023-03-25T01:02:54.025Z,99.90
2023-03-25T01:03:58.167Z,99.90
2023-03-25T01:05:02.666Z,99.90
2023-03-25T01:06:09.103Z,99.90
2023-03-25T01:07:11.398Z,99.90
2023-03-25T01:08:14.825Z,99.90
2023-03-25T01:09:17.467Z,99.90
2023-03-25T01:10:19.914Z,99.90
2023-03-25T01:11:26.980Z,99.90
2023-03-25T01:12:29.351Z,99.90
2023-03-25T01:13:31.924Z,99.90
2023-03-25T01:14:37.722Z,99.90
2023-03-25T01:15:40.980Z,99.90
2023-03-25T01:16:43.844Z,99.90
2023-03-25T01:17:46.342Z,99.90
2023-03-25T01:18:49.103Z,99.90
2023-03-25T01:19:51.679Z,99.90
2023-03-25T01:20:56.330Z,99.90
2023-03-25T01:21:58.557Z,99.90
2023-03-25T01:23:01.093Z,99.90
2023-03-25T01:24:04.022Z,99.90
2023-03-25T01:25:06.973Z,99.90
2023-03-25T01:26:09.169Z,99.90
2023-03-25T01:27:12.340Z,99.90
2023-03-25T01:28:17.698Z,99.90
2023-03-25T01:29:21.710Z,99.90
2023-03-25T01:30:24.124Z,99.90
2023-03-25T01:31:30.572Z,99.90
2023-03-25T01:32:34.416Z,99.90
2023-03-25T01:33:38.512Z,99.90
2023-03-25T01:34:43.120Z,99.90
2023-03-25T01:35:50.454Z,99.90
2023-03-25T01:36:55.182Z,99.90
2023-03-25T01:37:57.376Z,99.90
2023-03-25T01:39:01.649Z,99.90
2023-03-25T01:40:08.165Z,99.90
2023-03-25T01:41:10.831Z,99.90
2023-03-25T01:42:13.402Z,99.90
2023-03-25T01:43:16.327Z,99.90
2023-03-25T01:44:56.769Z,99.90
2023-03-25T01:46:01.746Z,99.90
2023-03-25T01:47:05.249Z,99.90
2023-03-25T01:48:12.076Z,99.90
2023-03-25T01:49:21.698Z,99.90
2023-03-25T01:50:24.118Z,99.90
2023-03-25T01:51:29.890Z,99.90
2023-03-25T01:52:33.724Z,99.90
2023-03-25T01:53:35.978Z,99.90
2023-03-25T01:54:39.064Z,99.90
2023-03-25T01:55:41.324Z,99.90
2023-03-25T01:56:46.771Z,99.90
2023-03-25T01:57:50.194Z,99.90
2023-03-25T01:58:54.008Z,99.90
2023-03-25T01:59:56.236Z,99.90
2023-03-25T02:01:01.363Z,99.90
2023-03-25T02:02:09.114Z,99.90
2023-03-25T02:03:13.072Z,99.90
2023-03-25T02:04:27.256Z,99.90
2023-03-25T02:05:36.059Z,99.90
2023-03-25T02:06:42.761Z,99.90
2023-03-25T02:07:49.211Z,99.90
2023-03-25T02:08:58.112Z,99.90
2023-03-25T02:10:03.044Z,99.90
2023-03-25T02:11:07.343Z,99.90
2023-03-25T02:12:09.549Z,99.90
2023-03-25T02:13:12.130Z,99.90
2023-03-25T02:14:17.849Z,99.90
2023-03-25T02:15:21.072Z,99.90
2023-03-25T02:16:30.457Z,99.90
2023-03-25T02:17:44.123Z,99.90
2023-03-25T02:18:53.248Z,99.90
2023-03-25T02:20:20.345Z,99.90
2023-03-25T02:21:57.038Z,99.90
2023-03-25T02:23:44.636Z,99.90
2023-03-25T02:25:14.280Z,99.90
2023-03-25T02:26:36.655Z,99.90
2023-03-25T02:27:49.039Z,99.90
2023-03-25T02:28:56.234Z,99.90
2023-03-25T02:30:25.559Z,99.90
2023-03-25T02:32:59.229Z,99.90
2023-03-25T02:34:41.999Z,99.90
2023-03-25T02:36:06.924Z,99.90
2023-03-25T02:37:30.806Z,99.90
2023-03-25T02:38:43.347Z,99.90
2023-03-25T02:39:49.778Z,99.90
2023-03-25T02:40:59.147Z,99.90
2023-03-25T02:42:08.249Z,99.90
2023-03-25T02:43:18.255Z,99.90
2023-03-25T02:44:30.835Z,99.90
2023-03-25T02:45:36.250Z,99.90
2023-03-25T02:46:43.533Z,99.90
2023-03-25T02:47:50.757Z,99.90
2023-03-25T02:48:57.605Z,99.90
2023-03-25T02:50:04.949Z,99.90
2023-03-25T02:51:12.398Z,99.90
2023-03-25T02:52:20.471Z,99.90
2023-03-25T02:53:27.414Z,99.90
2023-03-25T02:54:33.995Z,99.90
2023-03-25T02:55:37.469Z,99.90
2023-03-25T02:56:44.712Z,99.90
2023-03-25T02:57:50.243Z,99.90
2023-03-25T02:58:58.081Z,99.90
2023-03-25T03:00:00.121Z,99.90
2023-03-25T03:01:03.296Z,99.90
2023-03-25T03:02:09.074Z,99.90
2023-03-25T03:03:11.698Z,99.90
2023-03-25T03:04:13.991Z,99.90
2023-03-25T03:05:24.903Z,99.90
2023-03-25T03:06:28.443Z,99.90
2023-03-25T03:07:34.674Z,99.90
2023-03-25T03:08:47.636Z,99.90
2023-03-25T03:09:59.221Z,99.90
2023-03-25T03:11:07.838Z,99.90
2023-03-25T03:12:19.637Z,99.90
2023-03-25T03:13:32.812Z,99.90
2023-03-25T03:14:48.085Z,99.90
2023-03-25T03:16:01.339Z,99.90
2023-03-25T03:18:34.160Z,99.90
2023-03-25T03:19:41.704Z,99.90
2023-03-25T03:20:52.354Z,99.90
2023-03-25T03:22:01.347Z,99.90
2023-03-25T03:23:10.985Z,99.90
2023-03-25T03:24:18.096Z,99.90
2023-03-25T03:25:29.963Z,99.90
2023-03-25T03:26:39.069Z,99.90
2023-03-25T03:27:47.068Z,99.90
2023-03-25T03:28:54.305Z,99.90
2023-03-25T03:30:04.701Z,99.90
2023-03-25T03:31:11.408Z,99.90
2023-03-25T03:32:15.719Z,99.90
2023-03-25T03:33:21.915Z,99.90
2023-03-25T03:34:26.682Z,99.90
2023-03-25T03:35:31.805Z,99.90
2023-03-25T03:36:37.843Z,99.90
2023-03-25T03:37:41.998Z,99.90
2023-03-25T03:38:48.665Z,99.90
2023-03-25T03:39:58.229Z,99.90
2023-03-25T03:41:04.495Z,99.90
2023-03-25T03:42:09.649Z,99.90
2023-03-25T03:43:16.417Z,99.90
2023-03-25T03:44:20.180Z,99.90
2023-03-25T03:45:23.735Z,99.90
2023-03-25T03:46:29.113Z,99.90
2023-03-25T03:47:34.552Z,99.90
2023-03-25T03:48:38.777Z,99.90
2023-03-25T03:49:43.012Z,99.90
2023-03-25T03:50:49.041Z,99.90
2023-03-25T03:51:53.509Z,99.90
2023-03-25T03:53:03.106Z,99.90
2023-03-25T03:54:06.915Z,99.90
2023-03-25T03:55:10.953Z,99.90
2023-03-25T03:56:17.075Z,99.90
2023-03-25T03:57:21.779Z,99.90
2023-03-25T03:58:28.520Z,99.90
2023-03-25T03:59:37.420Z,99.90
2023-03-25T04:00:43.260Z,99.90
2023-03-25T04:01:46.663Z,99.90
2023-03-25T04:02:50.758Z,99.90
2023-03-25T04:03:54.278Z,99.90
2023-03-25T04:05:00.920Z,99.90
2023-03-25T04:06:08.517Z,99.90
2023-03-25T04:07:14.829Z,99.90
2023-03-25T04:08:24.271Z,99.90
2023-03-25T04:09:34.770Z,99.90
2023-03-25T04:10:40.160Z,99.90
2023-03-25T04:11:45.964Z,99.90
2023-03-25T04:12:51.101Z,99.90
2023-03-25T04:13:54.225Z,99.90
2023-03-25T04:14:56.512Z,99.90
2023-03-25T04:16:00.239Z,99.90
2023-03-25T04:17:02.187Z,99.90
2023-03-25T04:18:04.261Z,99.90
2023-03-25T04:19:06.824Z,99.90
2023-03-25T04:20:11.555Z,99.90
2023-03-25T04:21:15.362Z,99.90
2023-03-25T04:22:18.534Z,99.90
2023-03-25T04:23:22.730Z,99.90
2023-03-25T04:24:31.400Z,99.90
2023-03-25T04:25:33.880Z,99.90
2023-03-25T04:26:37.743Z,99.90
2023-03-25T04:27:41.208Z,99.90
2023-03-25T04:28:44.710Z,99.90
2023-03-25T04:29:47.822Z,99.90
2023-03-25T04:30:55.442Z,99.90
2023-03-25T04:31:57.738Z,99.90
2023-03-25T04:33:00.940Z,99.90
2023-03-25T04:34:04.551Z,99.90
2023-03-25T04:35:06.790Z,99.90
2023-03-25T04:36:09.439Z,99.90
2023-03-25T04:37:11.985Z,99.90
2023-03-25T04:38:18.220Z,99.90
2023-03-25T04:39:23.290Z,99.90
2023-03-25T04:40:25.895Z,99.90
2023-03-25T04:41:32.273Z,99.90
2023-03-25T04:42:37.384Z,99.90
2023-03-25T04:43:40.890Z,99.90
2023-03-25T04:44:42.779Z,99.90
2023-03-25T04:45:49.645Z,99.90
2023-03-25T04:46:52.392Z,99.90
2023-03-25T04:47:58.097Z,99.90
2023-03-25T04:49:00.616Z,99.90
2023-03-25T04:50:02.589Z,99.90
2023-03-25T04:51:04.713Z,99.90
2023-03-25T04:52:09.377Z,99.90
2023-03-25T04:53:11.489Z,99.90
2023-03-25T04:54:13.892Z,99.90
2023-03-25T04:55:19.798Z,99.90
2023-03-25T04:56:23.638Z,99.90
2023-03-25T04:57:26.395Z,99.90
2023-03-25T04:58:28.898Z,99.90
2023-03-25T04:59:32.142Z,99.90
2023-03-25T05:00:36.290Z,99.90
2023-03-25T05:01:42.441Z,99.90
2023-03-25T05:02:46.070Z,99.90
2023-03-25T05:03:50.568Z,99.90
2023-03-25T05:04:54.351Z,99.90
2023-03-25T05:05:59.251Z,99.90
2023-03-25T05:07:02.015Z,99.90
2023-03-25T05:08:04.697Z,99.90
2023-03-25T05:09:09.712Z,99.90
2023-03-25T05:10:12.684Z,99.90
2023-03-25T05:11:14.676Z,99.90
2023-03-25T05:12:17.525Z,99.90
2023-03-25T05:13:22.581Z,99.90
2023-03-25T05:14:24.637Z,99.90
2023-03-25T05:15:28.497Z,99.90
2023-03-25T05:16:30.787Z,99.90
2023-03-25T05:17:33.527Z,99.90
2023-03-25T05:18:35.758Z,99.90
2023-03-25T05:19:37.980Z,99.90
2023-03-25T05:20:41.139Z,99.90
2023-03-25T05:21:43.058Z,99.90
2023-03-25T05:22:45.850Z,99.90
2023-03-25T05:23:53.022Z,99.90
2023-03-25T05:24:58.364Z,99.90
2023-03-25T05:26:00.269Z,99.90
2023-03-25T05:27:02.479Z,99.90
2023-03-25T05:28:06.087Z,99.90
2023-03-25T05:29:08.977Z,99.90
2023-03-25T05:30:11.315Z,99.90
2023-03-25T05:31:14.664Z,99.90
2023-03-25T05:32:25.947Z,99.90
2023-03-25T05:33:28.370Z,99.90
2023-03-25T05:34:31.286Z,99.90
2023-03-25T05:35:33.353Z,99.90
2023-03-25T05:36:35.781Z,99.90
2023-03-25T05:37:38.017Z,99.90
2023-03-25T05:38:43.358Z,99.90
2023-03-25T05:39:46.636Z,99.90
2023-03-25T05:40:49.849Z,99.90
2023-03-25T05:41:55.642Z,99.90
2023-03-25T05:42:57.551Z,99.90
2023-03-25T05:44:00.511Z,99.90
2023-03-25T05:45:08.252Z,99.90
2023-03-25T05:46:10.402Z,99.90
2023-03-25T05:47:14.011Z,99.90
2023-03-25T05:48:16.142Z,99.90
2023-03-25T05:49:18.332Z,99.90
2023-03-25T05:50:21.980Z,99.90
2023-03-25T05:51:24.512Z,99.90
2023-03-25T05:52:27.486Z,99.90
2023-03-25T05:53:31.774Z,99.90
2023-03-25T05:54:34.413Z,99.90
2023-03-25T05:55:38.729Z,99.90
2023-03-25T05:56:42.234Z,99.90
2023-03-25T05:57:44.123Z,99.90
2023-03-25T05:58:47.033Z,99.90
2023-03-25T05:59:51.733Z,99.90
2023-03-25T06:00:54.677Z,99.90
2023-03-25T06:01:59.639Z,99.90
2023-03-25T06:03:12.030Z,99.90
2023-03-25T06:04:16.862Z,99.90
2023-03-25T06:05:23.680Z,99.90
2023-03-25T06:06:28.172Z,99.90
2023-03-25T06:07:34.053Z,99.90
2023-03-25T06:08:40.326Z,99.90
2023-03-25T06:09:46.737Z,99.90
2023-03-25T06:10:54.512Z,99.90
2023-03-25T06:11:56.527Z,99.90
2023-03-25T06:13:01.832Z,99.90
2023-03-25T06:14:05.855Z,99.90
2023-03-25T06:15:13.987Z,99.90
2023-03-25T06:16:18.545Z,99.90
2023-03-25T06:17:30.602Z,99.90
2023-03-25T06:18:35.135Z,99.90
2023-03-25T06:19:40.276Z,99.90
2023-03-25T06:20:50.249Z,99.90
2023-03-25T06:21:52.234Z,99.90
2023-03-25T06:22:54.107Z,99.90
2023-03-25T06:24:09.416Z,99.90
2023-03-25T06:25:12.728Z,99.90
2023-03-25T06:26:14.564Z,99.90
2023-03-25T06:27:17.747Z,99.90
2023-03-25T06:28:19.866Z,99.90
2023-03-25T06:29:21.764Z,99.90
2023-03-25T06:30:23.676Z,99.90
2023-03-25T06:31:34.138Z,99.90
2023-03-25T06:32:37.047Z,99.90
2023-03-25T06:33:42.756Z,99.90
2023-03-25T06:34:46.123Z,99.90
2023-03-25T06:35:54.698Z,99.90
2023-03-25T06:36:56.813Z,99.90
2023-03-25T06:37:58.728Z,99.90
2023-03-25T06:39:00.666Z,99.90
2023-03-25T06:40:02.840Z,99.90
2023-03-25T06:41:04.944Z,99.90
2023-03-25T06:42:07.448Z,99.90
2023-03-25T06:43:09.372Z,99.90
2023-03-25T06:44:11.446Z,99.90
2023-03-25T06:45:13.780Z,99.90
2023-03-25T06:46:15.831Z,99.90
2023-03-25T06:47:17.813Z,99.90
2023-03-25T06:48:19.695Z,99.90
2023-03-25T06:49:22.955Z,99.90
2023-03-25T06:50:24.821Z,99.90
2023-03-25T06:51:27.390Z,99.90
2023-03-25T06:52:29.258Z,99.90
2023-03-25T06:53:32.993Z,99.90
2023-03-25T06:54:34.980Z,99.90
2023-03-25T06:55:37.362Z,99.90
2023-03-25T06:56:39.395Z,99.90
2023-03-25T06:57:42.205Z,99.90
2023-03-25T06:58:45.127Z,99.90
2023-03-25T06:59:48.345Z,99.90
2023-03-25T07:00:53.931Z,99.90
2023-03-25T07:01:57.200Z,99.90
2023-03-25T07:02:59.474Z,99.90
2023-03-25T07:04:04.130Z,99.90
2023-03-25T07:05:08.928Z,99.90
2023-03-25T07:06:16.318Z,99.90
2023-03-25T07:07:18.542Z,99.90
2023-03-25T07:08:20.676Z,99.90
2023-03-25T07:09:22.851Z,99.90
2023-03-25T07:10:25.017Z,99.90
2023-03-25T07:11:29.757Z,99.90
2023-03-25T07:12:35.272Z,99.90
2023-03-25T07:13:37.374Z,99.90
2023-03-25T07:14:39.541Z,99.90
2023-03-25T07:15:41.804Z,99.90
2023-03-25T07:16:44.062Z,99.90
2023-03-25T07:17:49.420Z,99.90
2023-03-25T07:18:52.087Z,99.90
2023-03-25T07:19:54.200Z,99.90
2023-03-25T07:20:57.797Z,99.90
2023-03-25T07:22:00.383Z,99.90
2023-03-25T07:23:02.682Z,99.90
2023-03-25T07:24:05.429Z,99.90
2023-03-25T07:25:08.293Z,99.90
2023-03-25T07:26:10.624Z,99.90
2023-03-25T07:27:13.998Z,99.90
2023-03-25T07:28:16.345Z,99.90
2023-03-25T07:29:19.376Z,99.90
2023-03-25T07:30:21.673Z,99.90
2023-03-25T07:31:24.000Z,99.90
2023-03-25T07:32:26.269Z,99.90
2023-03-25T07:33:29.004Z,99.90
2023-03-25T07:34:31.298Z,99.90
2023-03-25T07:35:33.591Z,99.90
2023-03-25T07:36:37.356Z,99.90
2023-03-25T07:37:39.789Z,99.90
2023-03-25T07:38:42.154Z,99.90
2023-03-25T07:39:44.373Z,99.90
2023-03-25T07:40:49.903Z,99.90
2023-03-25T07:41:53.079Z,99.90
2023-03-25T07:42:55.367Z,99.90
2023-03-25T07:43:57.532Z,99.90
2023-03-25T07:44:59.825Z,99.90
2023-03-25T07:46:02.457Z,99.90
2023-03-25T07:47:05.072Z,99.90
2023-03-25T07:48:13.633Z,99.90
2023-03-25T07:49:16.627Z,99.90
2023-03-25T07:50:18.974Z,99.90
2023-03-25T07:51:21.224Z,99.90
2023-03-25T07:52:24.930Z,99.90
2023-03-25T07:53:27.684Z,99.90
2023-03-25T07:54:29.944Z,99.90
2023-03-25T07:55:34.385Z,99.90
2023-03-25T07:56:36.664Z,99.90
2023-03-25T07:57:40.912Z,99.90
2023-03-25T07:58:44.560Z,99.90
2023-03-25T07:59:46.868Z,99.90
2023-03-25T08:00:49.114Z,99.90
2023-03-25T08:01:54.430Z,99.90
2023-03-25T08:02:57.083Z,99.90
2023-03-25T08:03:59.719Z,99.90
2023-03-25T08:05:04.742Z,99.90
2023-03-25T08:06:08.091Z,99.90
2023-03-25T08:07:12.247Z,99.90
2023-03-25T08:08:19.999Z,99.90
2023-03-25T08:09:27.878Z,99.90
2023-03-25T08:10:36.403Z,99.90
2023-03-25T08:11:41.767Z,99.90
2023-03-25T08:12:44.786Z,99.90
2023-03-25T08:13:52.957Z,99.90
2023-03-25T08:14:57.604Z,99.90
2023-03-25T08:16:00.063Z,99.90
2023-03-25T08:17:05.642Z,99.90
2023-03-25T08:18:08.425Z,99.90
2023-03-25T08:19:11.166Z,99.90
2023-03-25T08:20:13.414Z,99.90
2023-03-25T08:21:16.272Z,99.90
2023-03-25T08:22:21.426Z,99.90
2023-03-25T08:23:26.745Z,99.90
2023-03-25T08:24:30.176Z,99.90
2023-03-25T08:25:34.242Z,99.90
2023-03-25T08:26:52.404Z,99.90
2023-03-25T08:27:59.854Z,99.90
2023-03-25T08:29:03.045Z,99.90
2023-03-25T08:30:06.358Z,99.90
2023-03-25T08:31:09.581Z,99.90
2023-03-25T08:32:12.015Z,99.90
2023-03-25T08:33:14.239Z,99.70
2023-03-25T08:34:16.690Z,99.70
2023-03-25T08:35:19.760Z,99.70
2023-03-25T08:36:24.442Z,99.60
2023-03-25T08:37:26.589Z,99.20
2023-03-25T08:38:34.792Z,98.80
2023-03-25T08:39:40.186Z,98.80
2023-03-25T08:40:43.993Z,98.70
2023-03-25T08:41:46.850Z,98.80
2023-03-25T08:42:49.087Z,98.60
2023-03-25T08:43:56.036Z,98.50
2023-03-25T08:44:58.379Z,98.50
2023-03-25T08:46:02.686Z,98.60
2023-03-25T08:47:05.850Z,98.80
2023-03-25T08:48:08.014Z,98.90
2023-03-25T08:49:10.302Z,98.80
2023-03-25T08:50:12.436Z,98.50
2023-03-25T08:51:14.540Z,98.50
2023-03-25T08:52:16.635Z,98.30
2023-03-25T08:53:20.861Z,98.30
2023-03-25T08:54:24.474Z,98.30
2023-03-25T08:55:26.757Z,98.30
2023-03-25T08:56:29.335Z,98.10
2023-03-25T08:57:31.523Z,98.00
2023-03-25T08:58:33.769Z,97.70
2023-03-25T08:59:36.090Z,97.70
2023-03-25T09:00:38.577Z,97.70
2023-03-25T09:01:42.304Z,97.60
2023-03-25T09:02:44.628Z,97.50
2023-03-25T09:03:46.777Z,97.30
2023-03-25T09:04:49.169Z,96.90
2023-03-25T09:05:51.837Z,96.90
2023-03-25T09:07:10.215Z,96.80
2023-03-25T09:08:15.043Z,96.80
2023-03-25T09:09:23.286Z,96.60
2023-03-25T09:10:28.250Z,96.50
2023-03-25T09:11:36.410Z,96.70
2023-03-25T09:12:41.427Z,97.00
2023-03-25T09:13:44.254Z,96.80
2023-03-25T09:14:46.652Z,96.80
2023-03-25T09:15:48.949Z,96.70
2023-03-25T09:16:51.452Z,96.80
2023-03-25T09:17:53.995Z,96.80
2023-03-25T09:18:59.237Z,96.60
2023-03-25T09:20:01.957Z,96.70
2023-03-25T09:21:04.763Z,96.60
2023-03-25T09:22:07.460Z,96.80
2023-03-25T09:23:12.486Z,96.40
2023-03-25T09:24:14.772Z,96.80
2023-03-25T09:25:17.221Z,96.40
2023-03-25T09:26:21.006Z,96.20
2023-03-25T09:27:23.283Z,96.20
2023-03-25T09:28:25.667Z,96.10
2023-03-25T09:29:29.039Z,96.10
2023-03-25T09:30:31.352Z,96.20
2023-03-25T09:31:33.682Z,96.50
2023-03-25T09:32:36.441Z,96.60
2023-03-25T09:33:38.817Z,96.70
2023-03-25T09:34:41.157Z,96.70
2023-03-25T09:35:43.544Z,96.70
2023-03-25T09:36:47.984Z,96.70
2023-03-25T09:37:51.848Z,96.70
2023-03-25T09:38:54.366Z,96.70
2023-03-25T09:39:57.619Z,96.60
2023-03-25T09:41:06.352Z,96.60
2023-03-25T09:42:27.246Z,96.70
2023-03-25T09:43:41.256Z,96.70
2023-03-25T09:44:55.922Z,96.30
2023-03-25T09:45:59.942Z,96.50
2023-03-25T09:47:03.243Z,96.30
2023-03-25T09:48:19.840Z,96.20
2023-03-25T09:49:25.845Z,96.10
2023-03-25T09:50:50.293Z,96.00
2023-03-25T09:51:57.358Z,96.10
2023-03-25T09:53:03.729Z,96.20
2023-03-25T09:54:17.858Z,96.30
2023-03-25T09:55:25.418Z,96.20
2023-03-25T09:56:31.342Z,96.10
2023-03-25T09:57:44.057Z,95.90
2023-03-25T09:58:48.056Z,95.70
2023-03-25T09:59:52.494Z,95.70
2023-03-25T10:01:05.472Z,95.30
2023-03-25T10:02:21.784Z,95.30
2023-03-25T10:03:28.668Z,94.90
2023-03-25T10:05:01.121Z,95.10
2023-03-25T10:06:28.365Z,95.10
2023-03-25T10:07:44.606Z,95.00
2023-03-25T10:09:10.484Z,95.10
2023-03-25T10:10:19.936Z,94.80
2023-03-25T10:11:29.561Z,94.50
2023-03-25T10:12:51.096Z,94.00
2023-03-25T10:14:06.236Z,94.10
2023-03-25T10:15:24.665Z,93.90
2023-03-25T10:16:37.342Z,94.10
2023-03-25T10:17:48.624Z,93.80
2023-03-25T10:19:00.231Z,93.90
2023-03-25T10:20:12.905Z,93.90
2023-03-25T10:21:22.460Z,93.30
2023-03-25T10:22:28.548Z,93.30
2023-03-25T10:23:36.484Z,93.10
2023-03-25T10:24:43.021Z,93.10
2023-03-25T10:25:53.408Z,93.10
2023-03-25T10:27:00.071Z,92.70
2023-03-25T10:28:05.813Z,92.70
2023-03-25T10:29:13.860Z,92.90
2023-03-25T10:30:42.389Z,93.20
2023-03-25T10:31:50.865Z,93.20
2023-03-25T10:32:57.194Z,93.40
2023-03-25T10:34:05.694Z,93.40
2023-03-25T10:35:15.616Z,93.10
2023-03-25T10:36:19.413Z,92.80
2023-03-25T10:37:28.913Z,92.60
2023-03-25T10:38:39.254Z,92.50
2023-03-25T10:39:45.548Z,91.90
2023-03-25T10:40:53.203Z,91.60
2023-03-25T10:41:59.773Z,91.60
2023-03-25T10:43:17.045Z,92.00
2023-03-25T10:44:21.340Z,91.40
2023-03-25T10:45:25.041Z,91.50
2023-03-25T10:46:32.104Z,91.50
2023-03-25T10:47:38.216Z,91.40
2023-03-25T10:48:40.826Z,91.40
2023-03-25T10:49:44.022Z,91.60
2023-03-25T10:50:48.090Z,91.60
2023-03-25T10:51:57.596Z,91.60
2023-03-25T10:53:00.504Z,91.30
2023-03-25T10:54:03.918Z,91.50
2023-03-25T10:55:14.057Z,91.30
2023-03-25T10:56:19.289Z,91.30
2023-03-25T10:57:26.414Z,91.00
2023-03-25T10:58:30.415Z,90.40
2023-03-25T10:59:37.076Z,90.10
2023-03-25T11:00:40.621Z,89.80
2023-03-25T11:01:43.654Z,88.10
2023-03-25T11:02:47.042Z,87.00
2023-03-25T11:03:52.211Z,85.40
2023-03-25T11:04:57.530Z,84.30
2023-03-25T11:05:59.737Z,85.60
2023-03-25T11:07:05.812Z,84.10
2023-03-25T11:08:23.691Z,80.60
2023-03-25T11:09:30.449Z,81.70
2023-03-25T11:10:34.604Z,83.10
2023-03-25T11:11:37.156Z,81.90
2023-03-25T11:12:43.737Z,81.80
2023-03-25T11:13:56.098Z,81.20
2023-03-25T11:14:59.033Z,81.70
2023-03-25T11:16:03.725Z,82.10
2023-03-25T11:17:11.550Z,81.00
2023-03-25T11:18:20.867Z,80.70
2023-03-25T11:19:28.057Z,81.40
2023-03-25T11:20:35.708Z,81.30
2023-03-25T11:21:37.900Z,80.90
2023-03-25T11:22:47.852Z,81.00
2023-03-25T11:23:53.879Z,81.20
2023-03-25T11:25:08.206Z,81.20
2023-03-25T11:26:31.633Z,80.70
2023-03-25T11:27:47.701Z,80.80
2023-03-25T11:28:53.559Z,80.80
2023-03-25T11:30:00.680Z,79.90
2023-03-25T11:31:17.646Z,79.70
2023-03-25T11:32:25.089Z,79.30
2023-03-25T11:33:27.306Z,78.00
2023-03-25T11:34:31.445Z,77.70
2023-03-25T11:35:37.911Z,77.20
2023-03-25T11:36:47.154Z,74.10
2023-03-25T11:37:56.013Z,72.60
2023-03-25T11:39:00.542Z,71.20
2023-03-25T11:40:06.782Z,66.50
2023-03-25T11:41:09.126Z,58.60
2023-03-25T11:42:20.730Z,58.80
2023-03-25T11:43:25.120Z,59.30
2023-03-25T11:44:30.906Z,59.90
2023-03-25T11:45:35.741Z,60.40
2023-03-25T11:46:42.964Z,59.00
2023-03-25T11:47:45.497Z,57.50
2023-03-25T11:48:48.757Z,56.00
2023-03-25T11:49:53.644Z,54.40
2023-03-25T11:50:57.973Z,52.30
2023-03-25T11:52:04.577Z,51.50
2023-03-25T11:53:06.919Z,51.60
2023-03-25T11:54:14.499Z,52.50
2023-03-25T11:55:20.600Z,52.50
2023-03-25T11:56:29.101Z,53.10
2023-03-25T11:57:41.423Z,54.80
2023-03-25T11:58:43.901Z,55.20
2023-03-25T11:59:48.910Z,56.80
2023-03-25T12:00:53.657Z,57.10
2023-03-25T12:02:13.443Z,57.60
2023-03-25T12:03:27.499Z,55.30
2023-03-25T12:04:35.935Z,52.40
2023-03-25T12:05:44.070Z,51.00
2023-03-25T12:06:55.328Z,48.50
2023-03-25T12:08:20.823Z,48.00
2023-03-25T12:09:30.735Z,47.70
2023-03-25T12:10:47.174Z,47.30
2023-03-25T12:12:09.562Z,47.40
2023-03-25T12:13:21.265Z,49.70
2023-03-25T12:14:36.241Z,51.80
2023-03-25T12:15:44.128Z,53.20
2023-03-25T12:16:56.043Z,53.80
2023-03-25T12:18:12.624Z,54.60
2023-03-25T12:19:24.960Z,55.00
2023-03-25T12:20:32.712Z,56.20
2023-03-25T12:21:48.097Z,56.90
2023-03-25T12:23:02.362Z,57.80
2023-03-25T12:24:18.897Z,58.40
2023-03-25T12:25:27.834Z,59.00
2023-03-25T12:26:37.479Z,59.10
2023-03-25T12:27:53.573Z,59.30
2023-03-25T12:29:19.709Z,59.60
2023-03-25T12:30:31.835Z,57.30
2023-03-25T12:31:46.876Z,56.30
2023-03-25T12:32:54.735Z,57.20
2023-03-25T12:34:08.279Z,58.10
2023-03-25T12:35:23.312Z,58.80
2023-03-25T12:36:39.351Z,59.40
2023-03-25T12:38:00.529Z,59.80
2023-03-25T12:39:17.299Z,60.10
2023-03-25T12:40:36.960Z,60.20
2023-03-25T12:41:44.136Z,61.00
2023-03-25T12:42:55.828Z,59.30
2023-03-25T12:44:02.629Z,57.30
2023-03-25T12:45:23.828Z,56.10
2023-03-25T12:46:47.553Z,55.40
2023-03-25T12:47:55.502Z,54.80
2023-03-25T12:49:14.878Z,53.10
2023-03-25T12:50:34.991Z,52.40
2023-03-25T12:51:45.279Z,50.90
2023-03-25T12:52:57.408Z,52.50
2023-03-25T12:54:09.613Z,54.10
2023-03-25T12:55:31.873Z,54.50
2023-03-25T12:56:52.642Z,55.40
2023-03-25T12:58:07.119Z,55.10
2023-03-25T12:59:26.980Z,54.50
2023-03-25T13:00:39.185Z,52.80
2023-03-25T13:01:53.861Z,52.70
2023-03-25T13:03:35.091Z,52.90
2023-03-25T13:04:55.992Z,51.30
2023-03-25T13:06:06.761Z,51.50
2023-03-25T13:07:13.381Z,52.40
2023-03-25T13:08:19.793Z,52.80
2023-03-25T13:09:26.737Z,53.10
2023-03-25T13:10:33.453Z,52.90
2023-03-25T13:11:41.202Z,53.30
2023-03-25T13:12:49.753Z,53.50
2023-03-25T13:13:55.939Z,53.90
2023-03-25T13:15:05.041Z,54.20
2023-03-25T13:16:11.508Z,54.50
2023-03-25T13:17:24.689Z,54.90
2023-03-25T13:18:31.160Z,55.20
2023-03-25T13:19:39.300Z,55.60
2023-03-25T13:20:45.340Z,55.60
2023-03-25T13:21:52.787Z,55.40
2023-03-25T13:23:01.673Z,55.00
2023-03-25T13:24:10.465Z,55.10
2023-03-25T13:25:21.428Z,55.20
2023-03-25T13:26:25.450Z,55.60
2023-03-25T13:27:34.007Z,55.70
2023-03-25T13:28:39.977Z,55.40
2023-03-25T13:29:44.767Z,55.50
2023-03-25T13:30:49.614Z,55.90
2023-03-25T13:31:53.808Z,56.90
2023-03-25T13:33:02.011Z,57.10
2023-03-25T13:34:16.544Z,57.10
2023-03-25T13:35:23.577Z,57.10
2023-03-25T13:36:29.558Z,57.00
2023-03-25T13:37:35.208Z,57.30
2023-03-25T13:38:43.062Z,57.60
2023-03-25T13:39:56.939Z,57.80
2023-03-25T13:41:09.695Z,57.90
2023-03-25T13:42:17.803Z,58.00
2023-03-25T13:43:26.713Z,58.30
2023-03-25T13:44:33.194Z,58.70
2023-03-25T13:45:45.933Z,58.90
2023-03-25T13:46:51.377Z,59.10
2023-03-25T13:48:03.885Z,59.00
2023-03-25T13:49:13.509Z,59.40
2023-03-25T13:50:23.838Z,59.90
2023-03-25T13:51:26.413Z,60.50
2023-03-25T13:52:36.346Z,60.40
2023-03-25T13:53:44.233Z,60.90
2023-03-25T13:54:52.977Z,61.50
2023-03-25T13:56:09.963Z,61.70
2023-03-25T13:57:38.303Z,62.00
2023-03-25T13:59:08.050Z,62.70
2023-03-25T14:00:38.748Z,63.50
2023-03-25T14:02:01.373Z,62.90
2023-03-25T14:03:36.831Z,62.90
2023-03-25T14:05:10.781Z,61.70
2023-03-25T14:06:43.789Z,61.20
2023-03-25T14:08:02.340Z,61.40
2023-03-25T14:09:38.879Z,60.80
2023-03-25T14:10:52.821Z,61.60
2023-03-25T14:12:02.123Z,61.70
2023-03-25T14:13:07.005Z,61.40
2023-03-25T14:14:11.805Z,61.40
2023-03-25T14:15:20.245Z,61.50
2023-03-25T14:16:25.789Z,61.10
2023-03-25T14:17:29.003Z,61.40
2023-03-25T14:18:35.523Z,61.70
2023-03-25T14:19:40.277Z,61.50
2023-03-25T14:20:42.454Z,61.20
2023-03-25T14:21:49.224Z,61.20
2023-03-25T14:22:57.485Z,61.10